NCAR-RAP Real-Time Weather Data

Output produced by METARs form (10 April 2020  05:54 UTC)
found at http://weather.rap.ucar.edu/surface/
 
KRST 100454Z AUTO 30013KT 10SM CLR M01/M06 A3004 RMK AO2 SLP187 T10111061 $
KRST 100354Z 30013KT 10SM CLR M01/M07 A3004 RMK AO2 SLP186 T10111067 $
KRST 100254Z 30011KT 10SM CLR M01/M07 A3004 RMK AO2 SLP186 T10061067 51024 $
KRST 100154Z 31013KT 10SM CLR 00/M07 A3001 RMK AO2 SLP178 T00001067 $
KRST 100054Z 33014KT 10SM CLR 01/M08 A2999 RMK AO2 PK WND 32029/2357 SLP170 T00061078 $
KRST 092354Z 33021G29KT 10SM BKN060 02/M08 A2996 RMK AO2 PK WND 33032/2315 SLP161 60000 I6000 T00171078 10028 21017 53017 $
KRST 092254Z 32026G35KT 10SM SCT055 03/M06 A2994 RMK AO2 PK WND 33035/2203 UPB04E08SNB08E21 SLP152 P0000 T00281061 $
KRST 092154Z 31016G23KT 10SM FEW039 SCT050 01/M05 A2993 RMK AO2 PK WND 33043/2106 UPB29E33RAB33E41SNB04SNEMMB17E29 SLP148 P0000 T00111050 $
KRST 092132Z 33018G29KT 9SM UP SCT012 SCT046 BKN065 01/M05 A2992 RMK AO2 PK WND 33043/2106 UPB29SNB04SNEMMB17E29 P0000 T00111050 $
KRST 092125Z 33015KT 2 1/2SM R31/4500VP6000FT -SN SCT016 BKN033 BKN042 01/M04 A2992 RMK AO2 PK WND 33043/2106 SNB04SNEMMB17 P0000 T00061044 $
KRST 092123Z 33016KT 1SM R31/1800VP6000FT -SN SCT016 BKN033 BKN046 00/M04 A2992 RMK AO2 PK WND 33043/2106 SNB04SNEMMB17 P0000 T00001044 $
KRST 092121Z 32016G28KT 1/2SM R31/1800VP6000FT SN BKN013 BKN033 OVC065 M01/M04 A2992 RMK AO2 PK WND 33043/2106 SNB04SNEMMB17 P0000 T10061044 $
KRST 092115Z 32018G43KT 1/4SM R31/1600VP6000FT FZFG BKN009 BKN035 BKN047 M02/M04 A2993 RMK AO2 PK WND 33043/2106 SNB04SNEMM P0000 T10171039 $
KRST 092111Z 32028G43KT 1/4SM R31/1600VP6000FT +SN SCT011 BKN036 BKN047 M01/M04 A2993 RMK AO2 PK WND 33043/2106 SNB04 P0000 T10111039
KRST 092108Z 32032G43KT 1SM R31/1800VP6000FT -SN FEW015 SCT032 BKN045 M01/M04 A2992 RMK AO2 PK WND 33043/2106 SNB04 P0000 T10061039
KRST 092054Z 31022G29KT 10SM FEW034 02/M04 A2991 RMK AO2 PK WND 30032/2031 UPE1956 SLP142 P0000 60000 I3000 T00221039 51015
KRST 091954Z 31016G27KT 8SM UP FEW029 BKN036 OVC060 00/M04 A2991 RMK AO2 PK WND 31039/1857 UPB54SNE54 SLP142 P0000 T00001039
KRST 091950Z 31021G33KT 1 3/4SM R31/3500VP6000FT -SN BKN028 BKN036 OVC055 00/M04 A2991 RMK AO2 PK WND 31039/1857 P0000
KRST 091946Z 32018G33KT 1/2SM R31/2800VP6000FT SN FEW010 BKN029 OVC036 M01/M04 A2991 RMK AO2 PK WND 31039/1857 P0000 T10061044
KRST 091938Z 31025G33KT 1 1/4SM R31/2800VP6000FT -SN FEW011 SCT022 BKN033 01/M03 A2991 RMK AO2 PK WND 31039/1857 TWR VIS 2 1/2 P0000 T00061033
KRST 091901Z 32026G39KT 2 1/2SM -SN SCT021 BKN028 BKN036 01/M03 A2989 RMK AO2 PK WND 31039/1857 VIS 1 1/2V5 P0000 T00061033
KRST 091854Z 32028G37KT 5SM -SN SCT021 SCT031 BKN090 02/M03 A2988 RMK AO2 PK WND 32038/1843 SNE01B49 SLP132 P0000 I1000 T00171028
KRST 091809Z 30017G24KT 10SM FEW022 SCT033 BKN075 01/M03 A2986 RMK AO2 SNE01 P0000 T00061033
KRST 091757Z 30014G25KT 3SM -SN BR BKN017 BKN033 OVC048 M01/M03 A2986 RMK AO2 P0000 T10111033
KRST 091754Z 30019KT 1 3/4SM -SN BR BKN012 OVC033 M01/M03 A2986 RMK AO2 PK WND 31032/1719 SNE1659B10 SLP127 P0002 60003 I6000 T10111033 10028 21017 51012
KRST 091750Z 30018G28KT 3/4SM R31/2400VP6000FT -SN BR BKN010 OVC033 M01/M03 A2986 RMK AO2 PK WND 31032/1719 TWR VIS 1 SNE1659B10 P0002
KRST 091727Z 31022G32KT 1/4SM R31/1600V4000FT +SN FZFG BKN008 BKN026 OVC042 M01/M03 A2986 RMK AO2 PK WND 31032/1719 TWR VIS 2 SNE1659B10 PRESRR P0000 T10111033
KRST 091722Z 30021G32KT 1/4SM R31/1600VP6000FT SN FZFG SCT012 BKN029 BKN038 M01/M03 A2985 RMK AO2 PK WND 31032/1719 TWR VIS 2 SNE1659B10 P0000 T10111033
KRST 091719Z 30023G32KT 1SM R31/2600VP6000FT -SN SCT021 BKN029 BKN038 00/M04 A2985 RMK AO2 PK WND 31032/1719 TWR VIS 2 SNE1659B10 P0000 T00001039
KRST 091704Z 33019G27KT 9SM SCT025 BKN035 BKN055 02/M04 A2984 RMK AO2 PK WND 34027/1700 SNE1659 P0000 T00221039
KRST 091654Z 33020G31KT 9SM -SN BKN025 BKN034 BKN050 02/M03 A2984 RMK AO2 PK WND 30035/1634 UPB24E25SNE24B48 SLP116 P0001 I1000 T00171033
KRST 091627Z 31022G30KT 9SM SCT009 02/M02 A2984 RMK AO2 PK WND 32033/1555 UPB24E25SNE24 P0001 T00171022
KRST 091619Z 31018G28KT 5SM -SN BR FEW008 BKN015 BKN043 01/M02 A2984 RMK AO2 PK WND 32033/1555 P0001 T00061017
KRST 091610Z 32019G30KT 1SM R31/2400VP6000FT -SN BR FEW006 BKN013 BKN041 M01/M03 A2984 RMK AO2 PK WND 32033/1555 SFC VIS 1 1/4 P0001 T10061028
KRST 091602Z 31023G38KT 1/2SM R31/2200V5500FT SN FZFG BKN013 BKN043 M02/M04 A2984 RMK AO2 PK WND 32033/1555 TWR VIS 1 P0000 T10171039
KRST 091554Z 31028G40KT 1SM R31/2800VP6000FT -SN SCT017 BKN038 BKN044 01/M03 A2983 RMK AO2 PK WND 31040/1552 SFC VIS 1 1/4 UPB17E20SNB07E17B24 SLP113 P0000 T00111028
KRST 091550Z 30018G26KT 2SM R31/3500VP6000FT -SN SCT019 BKN036 BKN044 02/M02 A2982 RMK AO2 PK WND 30035/1508 UPB17E20SNB07E17B24 P0000
KRST 091546Z 30015G31KT 1SM R31/3500VP6000FT -SN BKN019 BKN032 BKN041 00/M03 A2983 RMK AO2 PK WND 30035/1508 UPB17E20SNB07E17B24 P0000 T00001028
KRST 091538Z 31024G35KT 1/2SM R31/3500VP6000FT -SN SCT030 BKN040 OVC065 01/M04 A2983 RMK AO2 PK WND 30035/1508 SFC VIS 1 3/4 UPB17E20SNB07E17B24 P0000 T00061044
KRST 091454Z 31018G29KT 10SM SCT042 BKN060 02/M06 A2981 RMK AO2 PK WND 31029/1413 SLP105 T00221061 58009
KRST 091354Z 30017G25KT 10SM CLR 02/M05 A2983 RMK AO2 SLP111 T00221050
KRST 091254Z 29015KT 10SM CLR 01/M05 A2984 RMK AO2 SLP116 T00061050
KRST 091154Z 28014KT 10SM CLR M01/M04 A2984 RMK AO2 SLP114 70003 T10061044 10017 21011 55003
KRST 091054Z 27012KT 10SM CLR M01/M04 A2983 RMK AO2 SLP113 T10061044
KRST 090954Z AUTO 28012KT 10SM FEW060 BKN070 00/M04 A2984 RMK AO2 SLP113 T00001044
KRST 090854Z AUTO 27010KT 10SM CLR M01/M04 A2985 RMK AO2 SLP116 T10061044 58005
KRST 090754Z AUTO 29013KT 10SM CLR 01/M05 A2986 RMK AO2 SLP118 T00061050